Time;durP1;ratioP1;P1;durP2;ratioP2;P2;SDS_P1;SDS_P2;PMS_P1;PMS_P2;Temp;Humidity;BMP_temperature;BMP_pressure;BME280_temperature;BME280_humidity;BME280_pressure;Samples;Min_cycle;Max_cycle;Signal;HPM_P1;HPM_P2
2022/06/08 00:00:00;;;;;;;10.90;3.42;;;;;;;20.65;52.77;94850.91;4931560;29;20422;-83
2022/06/08 00:02:32;;;;;;;8.35;3.50;;;;;;;20.00;52.73;94756.81;4931964;29;20079;-83
2022/06/08 00:04:57;;;;;;;3.67;3.00;;;;;;;19.98;52.66;94748.31;4927555;28;20046;-84
2022/06/08 00:07:22;;;;;;;4.38;3.25;;;;;;;20.69;52.78;94862.56;4950444;29;20031;-83
2022/06/08 00:09:48;;;;;;;6.63;3.05;;;;;;;20.35;52.94;94823.56;4948665;29;20027;-84
2022/06/08 00:12:14;;;;;;;9.02;3.17;;;;;;;19.99;52.91;94755.22;4953876;29;20039;-84
2022/06/08 00:14:41;;;;;;;3.80;3.20;;;;;;;20.60;53.40;94843.06;4948671;29;20461;-84
2022/06/08 00:17:07;;;;;;;7.28;3.00;;;;;;;20.60;52.89;94843.84;4949175;29;20510;-83
2022/06/08 00:19:32;;;;;;;6.65;3.22;;;;;;;20.63;52.62;94848.56;4946039;29;20479;-84
2022/06/08 00:21:58;;;;;;;8.05;3.38;;;;;;;19.80;52.44;94727.41;4942815;29;20035;-84
2022/06/08 00:24:24;;;;;;;7.82;3.35;;;;;;;20.45;52.78;94816.88;4946444;29;20559;-83
2022/06/08 00:26:49;;;;;;;7.43;3.28;;;;;;;20.53;52.75;94834.78;4948586;29;20039;-84
2022/06/08 00:29:15;;;;;;;6.63;2.88;;;;;;;20.48;52.98;94838.53;4947303;29;20513;-83
2022/06/08 00:31:40;;;;;;;6.78;2.85;;;;;;;19.79;53.40;94764.28;4919309;29;20049;-83
2022/06/08 00:34:06;;;;;;;5.28;3.08;;;;;;;19.71;53.18;94738.28;4947108;29;20039;-84
2022/06/08 00:36:31;;;;;;;7.35;2.88;;;;;;;20.06;53.23;94802.34;4952414;29;20039;-84
2022/06/08 00:38:57;;;;;;;7.03;3.65;;;;;;;19.94;52.96;94795.84;4952859;28;20035;-83
2022/06/08 00:41:22;;;;;;;7.82;3.38;;;;;;;19.73;53.10;94759.47;4944801;29;20422;-84
2022/06/08 00:43:48;;;;;;;4.32;3.03;;;;;;;19.84;52.61;94765.94;4953266;29;20383;-84
2022/06/08 00:46:13;;;;;;;7.57;3.22;;;;;;;19.81;52.60;94756.66;4928938;29;20066;-83
2022/06/08 00:48:44;;;;;;;6.32;3.25;;;;;;;20.15;52.69;94835.25;4952174;28;20031;-83
2022/06/08 00:51:10;;;;;;;4.45;2.85;;;;;;;19.55;53.23;94754.38;4944784;29;20034;-83
2022/06/08 00:53:43;;;;;;;4.90;3.17;;;;;;;20.11;53.28;94831.69;4944979;29;20098;-83
2022/06/08 00:56:14;;;;;;;7.72;3.33;;;;;;;19.65;53.68;94778.13;4943351;29;20046;-84
2022/06/08 00:58:40;;;;;;;8.25;3.08;;;;;;;19.45;53.26;94743.28;4920612;29;20577;-82
2022/06/08 01:01:05;;;;;;;7.88;2.95;;;;;;;18.96;53.55;94681.53;4932164;29;20058;-84
2022/06/08 01:03:31;;;;;;;6.63;3.45;;;;;;;19.00;53.50;94682.41;4922638;29;20110;-82
2022/06/08 01:06:14;;;;;;;6.43;3.75;;;;;;;19.51;53.21;94766.16;4920577;29;20039;-82
2022/06/08 01:08:44;;;;;;;7.60;4.72;;;;;;;19.61;54.08;94790.66;4946983;29;20507;-82
2022/06/08 01:11:24;;;;;;;10.13;4.72;;;;;;;18.62;54.23;94644.38;4934124;29;20032;-82
2022/06/08 01:13:52;;;;;;;6.30;3.88;;;;;;;19.74;54.48;94822.94;4948334;29;20035;-83
2022/06/08 01:16:17;;;;;;;8.40;3.72;;;;;;;18.71;54.84;94698.78;4956652;28;20043;-83
2022/06/08 01:18:43;;;;;;;6.30;3.22;;;;;;;19.20;54.93;94764.03;4955017;28;20276;-83
2022/06/08 01:21:18;;;;;;;7.45;3.33;;;;;;;19.40;55.51;94822.25;4967227;29;20033;-82
2022/06/08 01:23:44;;;;;;;8.15;3.20;;;;;;;18.73;55.42;94701.91;4941897;29;20035;-83
2022/06/08 01:26:24;;;;;;;5.60;2.95;;;;;;;19.24;56.29;94824.06;4928598;29;20034;-82
2022/06/08 01:29:13;;;;;;;7.22;3.45;;;;;;;19.15;56.04;94824.16;4929754;29;20039;-83
2022/06/08 01:32:23;;;;;;;6.47;3.40;;;;;;;18.29;55.58;94679.38;4930178;29;20114;-83
2022/06/08 01:35:15;;;;;;;6.15;3.60;;;;;;;19.25;55.56;94817.56;4931803;29;20039;-82
2022/06/08 01:37:58;;;;;;;;;;;;;;;19.26;55.41;94814.56;4942411;28;20034;-82
2022/06/08 01:40:54;;;;;;;8.65;3.13;;;;;;;19.15;55.67;94797.28;4937824;29;20317;-82
2022/06/08 01:44:11;;;;;;;9.65;3.30;;;;;;;19.01;55.80;94786.09;4914992;29;20391;-82
2022/06/08 01:46:46;;;;;;;7.53;3.85;;;;;;;19.00;55.92;94783.72;4866827;29;20120;-83
2022/06/08 01:49:32;;;;;;;9.05;3.58;;;;;;;19.09;56.15;94828.19;4857537;29;20037;-83
2022/06/08 01:52:06;;;;;;;8.77;3.90;;;;;;;19.06;56.33;94820.03;4925609;29;20051;-83
2022/06/08 01:54:53;;;;;;;5.78;3.90;;;;;;;19.16;55.96;94822.25;4921430;29;20035;-82
2022/06/08 01:57:18;;;;;;;10.20;3.83;;;;;;;19.10;56.65;94826.31;4924282;29;20031;-83
2022/06/08 01:59:51;;;;;;;8.13;3.47;;;;;;;18.84;56.47;94775.59;4922874;29;20106;-82
2022/06/08 02:02:36;;;;;;;11.50;4.22;;;;;;;18.31;56.49;94725.47;4929949;29;20430;-82
2022/06/08 02:05:37;;;;;;;9.10;3.60;;;;;;;18.64;56.35;94787.97;4946194;29;20498;-82
2022/06/08 02:08:17;;;;;;;;;;;;;;;18.94;55.92;94826.16;4952442;29;20509;-83
2022/06/08 02:11:11;;;;;;;11.00;3.53;;;;;;;18.54;55.72;94766.88;4930023;29;20010;-83
2022/06/08 02:13:49;;;;;;;7.90;3.17;;;;;;;18.97;56.02;94819.34;4935719;29;20035;-82
2022/06/08 02:16:35;;;;;;;15.80;3.83;;;;;;;18.96;56.17;94823.16;4933741;29;20142;-82
2022/06/08 02:19:11;;;;;;;13.18;4.18;;;;;;;18.79;56.46;94805.34;4949059;28;20510;-82
2022/06/08 02:21:43;;;;;;;14.63;4.10;;;;;;;18.86;56.75;94817.09;4954530;29;20497;-83
2022/06/08 02:24:17;;;;;;;16.15;5.00;;;;;;;18.25;57.23;94726.78;4953010;29;20027;-83
2022/06/08 02:27:06;;;;;;;13.65;4.05;;;;;;;18.38;57.10;94734.53;4944960;28;20034;-83
2022/06/08 02:29:45;;;;;;;10.30;4.57;;;;;;;17.99;58.88;94737.78;4945826;29;20171;-83
2022/06/08 02:35:08;;;;;;;12.48;5.65;;;;;;;17.86;58.28;94666.41;4943099;29;20569;-83
2022/06/08 02:37:36;;;;;;;13.07;5.20;;;;;;;18.60;58.74;94813.94;4954965;29;20085;-83
2022/06/08 02:40:20;;;;;;;9.93;5.25;;;;;;;18.58;58.42;94820.75;4947717;29;20035;-83
2022/06/08 02:42:51;;;;;;;9.80;4.97;;;;;;;18.40;58.97;94820.09;4954989;28;20027;-83
2022/06/08 02:45:25;;;;;;;8.10;5.73;;;;;;;17.90;58.46;94724.44;4945437;29;20027;-83
2022/06/08 02:47:55;;;;;;;15.20;4.93;;;;;;;18.36;58.87;94820.00;4923287;29;20275;-83
2022/06/08 02:50:25;;;;;;;10.57;4.88;;;;;;;18.51;58.46;94819.34;4940004;29;20434;-83
2022/06/08 02:53:04;;;;;;;12.13;5.10;;;;;;;18.27;58.63;94791.66;4929349;29;20106;-82
2022/06/08 02:55:51;;;;;;;12.05;4.90;;;;;;;18.32;59.67;94813.69;4945948;29;20457;-83
2022/06/08 02:58:24;;;;;;;13.32;4.78;;;;;;;17.85;59.22;94735.38;4954210;29;20094;-82
2022/06/08 03:01:00;;;;;;;6.53;4.85;;;;;;;18.46;58.61;94827.59;4929481;29;21680;-83
2022/06/08 03:03:35;;;;;;;12.13;5.60;;;;;;;18.19;58.74;94800.56;4934016;29;20020;-82
2022/06/08 03:06:09;;;;;;;10.48;5.13;;;;;;;18.50;58.58;94843.84;4936564;29;20055;-82
2022/06/08 03:08:42;;;;;;;13.88;5.70;;;;;;;18.08;58.57;94787.56;4926479;29;20559;-82
2022/06/08 03:11:09;;;;;;;10.35;4.50;;;;;;;18.00;58.19;94772.31;4942177;29;20039;-83
2022/06/08 03:13:43;;;;;;;10.20;4.50;;;;;;;17.70;58.31;94730.59;4947478;29;20090;-82
2022/06/08 03:16:23;;;;;;;17.00;5.57;;;;;;;17.82;58.43;94754.03;4944212;29;20040;-83
2022/06/08 03:18:48;;;;;;;8.35;5.25;;;;;;;17.95;59.08;94810.09;4938434;29;20106;-83
2022/06/08 03:21:14;;;;;;;11.20;5.47;;;;;;;17.81;59.03;94782.75;4925477;29;20573;-83
2022/06/08 03:23:39;;;;;;;12.50;4.93;;;;;;;17.02;59.75;94713.91;4942123;29;20039;-83
2022/06/08 03:26:05;;;;;;;15.50;5.70;;;;;;;17.19;59.60;94723.72;4944463;29;20387;-82
2022/06/08 03:28:31;;;;;;;16.58;5.97;;;;;;;17.54;59.79;94770.63;4951177;29;20098;-82
2022/06/08 03:30:56;;;;;;;11.45;5.00;;;;;;;17.30;59.77;94731.06;4941426;29;20036;-83
2022/06/08 03:33:22;;;;;;;8.63;4.60;;;;;;;17.50;59.24;94753.63;4950892;29;20103;-82
2022/06/08 03:35:47;;;;;;;20.92;5.68;;;;;;;17.57;58.92;94745.84;4956505;29;20074;-83
2022/06/08 03:38:12;;;;;;;9.05;4.57;;;;;;;17.62;58.51;94739.53;4942873;29;20039;-82
2022/06/08 03:40:38;;;;;;;9.30;5.03;;;;;;;18.05;58.52;94790.13;4959777;29;20036;-83
2022/06/08 03:43:03;;;;;;;12.43;5.05;;;;;;;17.94;58.84;94762.13;4942785;29;20110;-83
2022/06/08 03:45:38;;;;;;;11.90;4.72;;;;;;;18.38;58.65;94835.78;4930855;29;20053;-83
2022/06/08 03:48:06;;;;;;;9.70;4.75;;;;;;;17.95;58.88;94763.69;4930597;29;20047;-83
2022/06/08 03:50:32;;;;;;;25.85;5.55;;;;;;;17.65;58.42;94704.78;4947757;29;20034;-83
2022/06/08 03:53:04;;;;;;;7.35;5.35;;;;;;;18.51;58.79;94840.84;4950910;29;20090;-82
2022/06/08 03:55:33;;;;;;;13.38;5.15;;;;;;;17.97;59.04;94754.22;4923579;29;20075;-82
2022/06/08 03:57:59;;;;;;;11.98;5.13;;;;;;;17.48;58.85;94675.41;4926745;29;20039;-82
2022/06/08 04:00:25;;;;;;;8.18;5.15;;;;;;;18.23;59.22;94802.28;4934647;29;20058;-83
2022/06/08 04:02:51;;;;;;;9.82;5.05;;;;;;;18.35;59.72;94842.56;4921968;29;20055;-83
2022/06/08 04:05:18;;;;;;;10.77;5.70;;;;;;;18.39;59.75;94840.00;4926706;29;20035;-82
2022/06/08 04:07:44;;;;;;;9.52;5.20;;;;;;;17.95;59.20;94751.06;4943913;29;20187;-82
2022/06/08 04:10:10;;;;;;;10.57;5.82;;;;;;;18.22;59.22;94781.91;4926671;29;20118;-83
2022/06/08 04:12:35;;;;;;;8.45;5.68;;;;;;;18.65;58.86;94843.25;4928928;29;20039;-83
2022/06/08 04:15:01;;;;;;;10.05;5.22;;;;;;;18.68;59.25;94836.44;4925919;29;20074;-82
2022/06/08 04:17:27;;;;;;;12.35;6.63;;;;;;;18.48;59.02;94803.91;4942867;29;20045;-82
2022/06/08 04:19:53;;;;;;;15.55;6.50;;;;;;;18.83;58.99;94839.28;4927026;29;20035;-82
2022/06/08 04:22:21;;;;;;;7.78;6.57;;;;;;;18.55;58.82;94811.41;4941897;28;20031;-83
2022/06/08 04:24:47;;;;;;;6.45;5.07;;;;;;;18.85;58.49;94838.91;4921495;29;20045;-83
2022/06/08 04:27:13;;;;;;;17.77;5.47;;;;;;;18.27;58.31;94716.50;4924185;29;20031;-83
2022/06/08 04:29:39;;;;;;;10.68;6.47;;;;;;;18.74;58.17;94794.81;4926744;29;20655;-83
2022/06/08 04:32:09;;;;;;;9.40;5.78;;;;;;;18.97;58.40;94822.84;4936149;29;20118;-83
2022/06/08 04:34:35;;;;;;;9.73;6.85;;;;;;;18.75;58.64;94813.28;4933826;29;20110;-83
2022/06/08 04:37:00;;;;;;;14.60;5.95;;;;;;;18.19;58.08;94715.47;4924236;29;20225;-83
2022/06/08 04:39:26;;;;;;;12.23;5.72;;;;;;;18.87;58.31;94832.09;4932563;29;20127;-83
2022/06/08 04:41:51;;;;;;;10.70;5.93;;;;;;;18.21;58.29;94741.97;4916350;29;20073;-83
2022/06/08 04:44:19;;;;;;;11.07;6.18;;;;;;;18.64;58.10;94761.09;4913877;29;20032;-84
2022/06/08 04:46:44;;;;;;;12.57;6.63;;;;;;;18.45;58.38;94725.94;4928767;29;20702;-85
2022/06/08 04:49:09;;;;;;;14.10;6.72;;;;;;;18.05;58.08;94647.91;4935750;29;20038;-82
2022/06/08 04:51:35;;;;;;;14.82;7.20;;;;;;;18.35;57.87;94692.25;4935838;29;20055;-83
2022/06/08 04:54:01;;;;;;;11.52;7.15;;;;;;;18.92;58.04;94787.34;4920787;29;20645;-83
2022/06/08 04:56:26;;;;;;;14.40;7.72;;;;;;;18.92;57.52;94776.59;4936758;29;20035;-82
2022/06/08 04:58:54;;;;;;;18.25;7.80;;;;;;;19.00;57.71;94810.59;4934313;28;20035;-82
2022/06/08 05:01:20;;;;;;;17.50;8.43;;;;;;;19.17;58.01;94848.03;4926752;29;20535;-83
2022/06/08 05:03:45;;;;;;;17.30;7.70;;;;;;;17.99;57.67;94641.97;4932913;29;20041;-84
2022/06/08 05:06:11;;;;;;;21.17;8.38;;;;;;;18.50;57.75;94723.81;4939085;29;20047;-83
2022/06/08 05:08:36;;;;;;;13.73;8.52;;;;;;;18.92;57.39;94773.91;4916917;29;20039;-83
2022/06/08 05:11:05;;;;;;;22.92;9.50;;;;;;;18.71;57.25;94731.78;4906982;29;20050;-83
2022/06/08 05:13:31;;;;;;;15.65;7.85;;;;;;;19.13;56.80;94766.50;4926953;29;20514;-83
2022/06/08 05:15:57;;;;;;;23.25;8.55;;;;;;;19.04;56.20;94765.84;4926208;29;20050;-83
2022/06/08 05:18:24;;;;;;;21.40;8.10;;;;;;;18.66;56.49;94699.00;4936204;29;20031;-83
2022/06/08 05:20:50;;;;;;;19.98;8.10;;;;;;;19.27;56.94;94796.50;4931042;29;20479;-83
2022/06/08 05:23:22;;;;;;;19.23;8.35;;;;;;;18.79;56.96;94719.38;4913221;29;20043;-83
2022/06/08 05:25:48;;;;;;;14.73;8.50;;;;;;;19.18;56.31;94758.22;4933018;29;20143;-83
2022/06/08 05:28:14;;;;;;;17.90;8.38;;;;;;;19.63;56.26;94826.09;4933015;28;20202;-82
2022/06/08 05:30:41;;;;;;;23.38;9.82;;;;;;;19.35;56.60;94797.53;4932457;29;20043;-83
2022/06/08 05:33:07;;;;;;;21.60;9.00;;;;;;;19.28;56.76;94766.63;4926774;29;20031;-82
2022/06/08 05:35:33;;;;;;;15.98;8.65;;;;;;;19.40;57.01;94789.22;4911223;29;21506;-82
2022/06/08 05:37:58;;;;;;;19.38;8.77;;;;;;;19.10;56.66;94726.84;4914885;29;20543;-83
2022/06/08 05:40:28;;;;;;;22.38;7.82;;;;;;;19.87;56.21;94833.31;4934738;29;20509;-83
2022/06/08 05:42:54;;;;;;;15.02;8.15;;;;;;;19.40;55.81;94773.06;4929894;29;20493;-82
2022/06/08 05:45:24;;;;;;;28.58;9.18;;;;;;;19.07;55.85;94698.75;4908833;29;20039;-84
2022/06/08 05:47:53;;;;;;;18.63;9.18;;;;;;;18.60;55.86;94625.94;4909215;29;20086;-83
2022/06/08 05:50:19;;;;;;;15.90;9.38;;;;;;;19.08;55.54;94716.44;4901074;29;20032;-84
2022/06/08 05:52:46;;;;;;;27.33;10.50;;;;;;;19.68;56.78;94832.38;4918447;29;20474;-84
2022/06/08 05:55:13;;;;;;;26.00;9.90;;;;;;;19.25;56.29;94753.84;4912577;29;20040;-84
2022/06/08 05:57:39;;;;;;;23.45;10.20;;;;;;;19.56;56.02;94779.34;4908719;29;20536;-83
2022/06/08 06:00:08;;;;;;;22.00;9.40;;;;;;;19.33;55.79;94730.63;4904610;29;20442;-84
2022/06/08 06:02:33;;;;;;;22.92;9.60;;;;;;;19.07;56.45;94703.38;4922692;29;20142;-84
2022/06/08 06:04:59;;;;;;;17.77;9.85;;;;;;;19.68;57.05;94846.59;4909480;29;20043;-84
2022/06/08 06:07:25;;;;;;;25.85;9.70;;;;;;;19.34;56.54;94758.31;4906502;29;20034;-84
2022/06/08 06:09:51;;;;;;;20.52;8.88;;;;;;;20.07;56.09;94825.41;4925367;29;20466;-84
2022/06/08 06:12:17;;;;;;;21.17;8.88;;;;;;;19.44;55.71;94741.72;4914615;29;20584;-84
2022/06/08 06:14:42;;;;;;;17.83;8.60;;;;;;;19.85;55.32;94789.03;4911492;29;20043;-84
2022/06/08 06:17:08;;;;;;;24.20;9.02;;;;;;;19.89;55.37;94774.56;4921784;29;20788;-84
2022/06/08 06:19:33;;;;;;;16.73;8.75;;;;;;;19.95;55.06;94762.44;4924565;29;20036;-84
2022/06/08 06:21:59;;;;;;;17.50;9.25;;;;;;;19.60;54.82;94708.44;4915805;29;20043;-84
2022/06/08 06:24:25;;;;;;;12.52;7.80;;;;;;;20.33;54.10;94788.06;4907913;29;20522;-84
2022/06/08 06:26:51;;;;;;;19.30;7.68;;;;;;;20.34;53.27;94770.81;4906400;29;20035;-84
2022/06/08 06:29:17;;;;;;;15.90;7.70;;;;;;;20.14;52.73;94731.41;4915581;29;20031;-82
2022/06/08 06:31:50;;;;;;;12.95;6.93;;;;;;;20.10;52.22;94706.28;4933977;29;20055;-82
2022/06/08 06:34:19;;;;;;;16.05;6.60;;;;;;;19.90;52.93;94667.72;4925774;29;20518;-82
2022/06/08 06:36:45;;;;;;;11.45;6.00;;;;;;;20.78;53.29;94780.44;4910195;29;20098;-83
2022/06/08 06:39:11;;;;;;;16.75;6.78;;;;;;;20.49;52.45;94736.97;4924403;29;20043;-83
2022/06/08 06:41:38;;;;;;;22.58;7.30;;;;;;;20.69;52.78;94765.56;4914331;29;20054;-82
2022/06/08 06:44:04;;;;;;;13.52;6.07;;;;;;;21.01;52.97;94793.28;4908684;29;20043;-82
2022/06/08 06:46:30;;;;;;;9.57;5.47;;;;;;;20.58;53.66;94738.38;4928482;28;20667;-83
2022/06/08 06:48:55;;;;;;;10.25;5.07;;;;;;;21.09;53.56;94806.59;4909675;29;20562;-83
2022/06/08 06:51:21;;;;;;;11.30;5.35;;;;;;;21.27;52.24;94812.47;4916231;29;20035;-83
2022/06/08 06:53:46;;;;;;;14.07;5.18;;;;;;;21.03;50.78;94793.75;4910165;29;20066;-82
2022/06/08 06:56:12;;;;;;;13.48;5.00;;;;;;;21.07;50.98;94771.13;4914190;29;20035;-84
2022/06/08 06:58:38;;;;;;;9.73;5.22;;;;;;;20.78;51.01;94714.97;4914438;29;20035;-83
2022/06/08 07:01:04;;;;;;;13.27;4.63;;;;;;;20.99;51.43;94790.16;4910604;29;20477;-83
2022/06/08 07:03:30;;;;;;;12.75;4.63;;;;;;;20.71;51.19;94712.09;4912638;29;20038;-83
2022/06/08 07:05:56;;;;;;;8.70;4.22;;;;;;;20.49;50.65;94691.16;4924245;29;20031;-82
2022/06/08 07:08:21;;;;;;;9.65;4.38;;;;;;;20.54;50.28;94662.06;4932953;29;20080;-82
2022/06/08 07:13:31;;;;;;;8.23;4.05;;;;;;;20.99;49.23;94706.59;4925114;29;20046;-83
2022/06/08 07:15:56;;;;;;;8.98;4.07;;;;;;;21.06;49.95;94726.41;4909184;29;20036;-83
2022/06/08 07:18:22;;;;;;;10.13;3.83;;;;;;;21.00;49.80;94732.41;4906459;29;20094;-82
2022/06/08 07:20:50;;;;;;;13.68;4.00;;;;;;;20.87;49.57;94691.31;4948837;29;20031;-84
2022/06/08 07:23:15;;;;;;;3.50;2.47;;;;;;;20.28;46.86;94622.16;4918200;29;20403;-83
2022/06/08 07:25:41;;;;;;;4.97;2.45;;;;;;;20.75;46.58;94702.22;4927393;29;20032;-83
2022/06/08 07:28:09;;;;;;;10.60;2.35;;;;;;;20.83;46.42;94698.53;4911057;29;20411;-83
2022/06/08 07:30:36;;;;;;;7.32;2.50;;;;;;;21.43;47.33;94788.16;4927945;29;20418;-83
2022/06/08 07:33:02;;;;;;;7.93;2.70;;;;;;;21.33;47.26;94740.16;4913482;29;20483;-83
2022/06/08 07:35:28;;;;;;;4.85;2.28;;;;;;;21.74;47.06;94809.66;4912722;29;20035;-83
2022/06/08 07:37:53;;;;;;;5.85;2.70;;;;;;;20.91;45.84;94661.75;4926746;29;20058;-83
2022/06/08 07:40:19;;;;;;;3.92;2.70;;;;;;;21.39;45.95;94760.31;4920063;29;20035;-83
2022/06/08 07:42:44;;;;;;;8.40;3.03;;;;;;;21.33;45.27;94753.63;4914509;29;20514;-83
2022/06/08 07:45:11;;;;;;;6.05;2.40;;;;;;;21.50;44.67;94755.94;4929898;29;20050;-83
2022/06/08 07:49:36;;;;;;;5.18;2.58;;;;;;;21.73;45.11;94758.75;4915122;29;20031;-83
2022/06/08 07:50:22;;;;;;;13.88;3.20;;;;;;;21.10;43.85;94678.75;4922831;29;20086;-83
2022/06/08 07:52:48;;;;;;;6.78;2.72;;;;;;;21.67;43.13;94774.41;4926847;29;20050;-83
2022/06/08 07:55:13;;;;;;;10.73;3.00;;;;;;;21.40;43.05;94740.31;4911867;29;20410;-83
2022/06/08 07:57:39;;;;;;;8.82;2.80;;;;;;;21.41;42.36;94742.66;4911513;29;20173;-82
2022/06/08 08:00:06;;;;;;;10.90;2.97;;;;;;;21.37;41.83;94736.38;4910069;29;20059;-84
2022/06/08 08:02:34;;;;;;;7.35;2.85;;;;;;;21.14;42.52;94700.38;4927769;29;20055;-83
2022/06/08 08:05:00;;;;;;;11.65;3.85;;;;;;;21.82;43.12;94805.19;4913462;29;20054;-84
2022/06/08 08:07:26;;;;;;;9.02;3.45;;;;;;;20.95;42.97;94682.25;4914867;29;20035;-84
2022/06/08 08:09:51;;;;;;;14.25;3.80;;;;;;;21.46;42.91;94726.19;4908344;29;20077;-83
2022/06/08 08:12:20;;;;;;;9.05;2.90;;;;;;;21.03;43.06;94642.78;4931863;29;20515;-83
2022/06/08 08:14:45;;;;;;;5.28;2.60;;;;;;;21.62;43.40;94714.56;4932193;29;20494;-84
2022/06/08 08:17:12;;;;;;;8.00;2.50;;;;;;;21.88;42.47;94741.72;4915723;29;20043;-84
2022/06/08 08:19:40;;;;;;;4.35;2.25;;;;;;;22.21;41.73;94790.59;4931733;29;20051;-84
2022/06/08 08:22:06;;;;;;;6.18;2.63;;;;;;;21.59;39.99;94669.41;4916600;29;20506;-84
2022/06/08 08:24:32;;;;;;;11.85;2.30;;;;;;;20.99;39.82;94564.50;4908322;29;20070;-83
2022/06/08 08:26:58;;;;;;;6.07;3.00;;;;;;;22.13;40.46;94756.50;4927938;29;20526;-83
2022/06/08 08:29:24;;;;;;;13.88;5.22;;;;;;;21.79;40.87;94693.34;4915950;29;20229;-84
2022/06/08 08:31:50;;;;;;;9.30;3.13;;;;;;;21.25;41.54;94636.72;4936614;29;20039;-85
2022/06/08 08:34:16;;;;;;;6.82;2.78;;;;;;;21.77;40.99;94689.41;4914281;29;20039;-83
2022/06/08 08:36:41;;;;;;;10.13;2.50;;;;;;;21.63;41.39;94683.75;4908532;29;20101;-83
2022/06/08 08:39:08;;;;;;;7.75;2.65;;;;;;;21.95;44.92;94737.22;4915181;29;20249;-82
2022/06/08 08:44:32;;;;;;;4.75;2.22;;;;;;;21.82;43.75;94703.41;4937688;29;20094;-82
2022/06/08 08:47:26;;;;;;;6.68;2.20;;;;;;;21.86;41.36;94679.19;4925699;29;20410;-82
2022/06/08 08:50:00;;;;;;;7.63;2.90;;;;;;;22.48;41.98;94753.69;4930660;29;20047;-84
2022/06/08 08:52:31;;;;;;;14.32;2.15;;;;;;;22.50;41.32;94747.94;4908717;29;20162;-83
2022/06/08 08:54:59;;;;;;;;;;;;;;;22.49;43.40;94762.56;4927841;29;20073;-84
2022/06/08 08:57:35;;;;;;;4.43;1.90;;;;;;;22.52;41.40;94746.41;4925361;29;20305;-84
2022/06/08 09:00:08;;;;;;;5.43;2.17;;;;;;;22.78;42.32;94744.94;4914436;29;20062;-83
2022/06/08 09:05:21;;;;;;;4.72;2.28;;;;;;;22.79;41.08;94750.00;4927198;29;20105;-84
2022/06/08 09:07:48;;;;;;;4.50;1.92;;;;;;;22.14;39.80;94665.44;4909285;29;20039;-84
2022/06/08 09:10:27;;;;;;;3.70;2.15;;;;;;;22.86;39.67;94743.94;4909137;29;20190;-84
2022/06/08 09:12:53;;;;;;;5.57;1.80;;;;;;;22.58;38.86;94714.50;4922251;29;20047;-83
2022/06/08 09:15:41;;;;;;;5.78;1.85;;;;;;;22.32;39.41;94667.34;4910284;29;20036;-84
2022/06/08 09:18:33;;;;;;;6.35;2.40;;;;;;;22.63;39.11;94700.66;4931888;29;20235;-84
2022/06/08 09:21:06;;;;;;;;;;;;;;;22.70;38.94;94733.22;4913792;29;20047;-84
2022/06/08 09:23:43;;;;;;;6.07;2.10;;;;;;;22.90;38.81;94732.03;4926375;29;19923;-83
2022/06/08 09:26:15;;;;;;;3.45;2.45;;;;;;;22.63;39.70;94687.16;4922156;29;20680;-83
2022/06/08 09:28:44;;;;;;;4.28;2.33;;;;;;;22.56;41.49;94654.59;4905958;29;20119;-83
2022/06/08 09:31:31;;;;;;;3.03;1.83;;;;;;;21.20;40.04;94424.00;4922937;29;20043;-84
2022/06/08 09:34:27;;;;;;;4.60;1.90;;;;;;;23.34;40.41;94728.84;4925983;29;20231;-84
2022/06/08 09:37:12;;;;;;;6.18;2.33;;;;;;;22.98;40.75;94673.41;4929022;29;20035;-84
2022/06/08 09:39:43;;;;;;;5.90;2.05;;;;;;;21.04;39.29;94351.28;4914293;29;20039;-83
2022/06/08 09:42:36;;;;;;;3.00;1.90;;;;;;;23.76;38.79;94724.00;4924542;29;20093;-84
2022/06/08 09:45:04;;;;;;;10.60;2.10;;;;;;;23.81;37.88;94650.56;4914166;29;20614;-84
2022/06/08 09:53:52;;;;;;;6.65;1.80;;;;;;;27.30;31.41;94663.97;4925819;29;20050;-85
2022/06/08 09:56:24;;;;;;;3.45;2.22;;;;;;;28.46;29.93;94657.25;4933709;29;20039;-84
2022/06/08 09:59:27;;;;;;;3.83;1.70;;;;;;;29.75;28.54;94707.63;4921268;29;20042;-85
2022/06/08 10:02:00;;;;;;;3.83;2.08;;;;;;;30.39;27.11;94654.13;4919811;29;20066;-84
2022/06/08 10:04:37;;;;;;;4.57;2.20;;;;;;;31.05;26.77;94687.16;4933497;29;20118;-84
2022/06/08 10:07:09;;;;;;;8.70;1.85;;;;;;;31.54;25.85;94688.28;4917728;29;20043;-84
2022/06/08 10:10:05;;;;;;;2.88;1.88;;;;;;;32.11;25.46;94689.97;4933715;29;20540;-84
2022/06/08 10:12:43;;;;;;;3.50;1.40;;;;;;;32.31;24.68;94678.97;4916801;29;20058;-85
2022/06/08 10:15:14;;;;;;;6.63;1.45;;;;;;;31.33;24.01;94489.47;4924463;29;20039;-84
2022/06/08 10:17:48;;;;;;;6.30;2.00;;;;;;;31.23;23.62;94411.00;4914592;29;20039;-84
2022/06/08 10:20:38;;;;;;;5.45;2.33;;;;;;;32.19;23.39;94480.91;4914486;29;20040;-84
2022/06/08 10:23:19;;;;;;;4.70;1.60;;;;;;;33.62;23.66;94679.38;4912912;29;20071;-84
2022/06/08 10:25:47;;;;;;;;;;;;;;;33.34;24.39;94678.13;4936876;29;20043;-84
2022/06/08 10:28:53;;;;;;;2.78;1.55;;;;;;;33.74;23.56;94668.88;4915690;29;19954;-84
2022/06/08 10:31:31;;;;;;;8.20;1.63;;;;;;;33.74;24.31;94663.38;4884001;29;20455;-84
2022/06/08 10:34:18;;;;;;;2.08;1.60;;;;;;;33.72;23.96;94670.06;4922799;29;20066;-83
2022/06/08 10:36:52;;;;;;;4.85;1.40;;;;;;;33.45;21.71;94627.63;4914113;29;20981;-83
2022/06/08 10:39:18;;;;;;;5.68;1.45;;;;;;;33.13;23.12;94607.22;4919093;29;20103;-84
2022/06/08 10:45:00;;;;;;;6.57;1.55;;;;;;;33.31;23.49;94569.09;4936222;29;20046;-85
2022/06/08 10:47:54;;;;;;;3.95;2.03;;;;;;;33.82;22.71;94665.50;4935429;29;20054;-84
2022/06/08 10:50:28;;;;;;;2.17;1.40;;;;;;;33.86;23.86;94654.41;4934981;29;20035;-84
2022/06/08 10:54:53;;;;;;;1.42;1.05;;;;;;;33.08;24.06;94591.28;4916856;29;20502;-84
2022/06/08 10:55:42;;;;;;;3.67;1.55;;;;;;;32.87;24.84;94598.09;4933926;29;20040;-84
2022/06/08 10:58:13;;;;;;;11.60;1.75;;;;;;;33.33;25.92;94649.13;4918319;29;20046;-84
2022/06/08 11:01:00;;;;;;;2.97;1.58;;;;;;;33.39;24.35;94663.09;4918424;29;20131;-84
2022/06/08 11:03:47;;;;;;;2.97;1.20;;;;;;;33.50;23.13;94655.34;4933804;29;20034;-84
2022/06/08 11:06:51;;;;;;;5.22;1.60;;;;;;;33.90;22.81;94649.56;4933554;29;20551;-84
2022/06/08 11:09:47;;;;;;;3.10;1.67;;;;;;;32.21;24.48;94543.56;4927465;29;20066;-85
2022/06/08 11:12:13;;;;;;;2.20;1.73;;;;;;;33.14;23.86;94646.44;4917884;29;20418;-84
2022/06/08 11:14:47;;;;;;;6.22;1.80;;;;;;;32.90;23.10;94645.88;4920320;29;20122;-84
2022/06/08 11:17:33;;;;;;;4.10;1.70;;;;;;;32.70;23.85;94637.72;4926840;29;20087;-84
2022/06/08 11:20:14;;;;;;;6.78;2.33;;;;;;;32.48;23.86;94579.03;4942670;29;20023;-85
2022/06/08 11:23:20;;;;;;;5.63;2.25;;;;;;;33.27;24.13;94617.84;4944857;29;20414;-85
2022/06/08 11:26:23;;;;;;;8.48;1.80;;;;;;;33.61;23.32;94638.56;4938686;29;20122;-85
2022/06/08 11:28:52;;;;;;;5.70;2.63;;;;;;;33.67;22.56;94603.81;4886974;29;20044;-85
2022/06/08 11:31:27;;;;;;;3.92;1.88;;;;;;;33.92;22.82;94628.69;4921936;29;20039;-84
2022/06/08 11:34:21;;;;;;;3.67;1.48;;;;;;;33.44;22.83;94599.34;4928742;29;20036;-85
2022/06/08 11:37:12;;;;;;;3.30;1.83;;;;;;;33.67;22.99;94612.84;4892412;29;20093;-85
2022/06/08 11:39:44;;;;;;;4.20;2.05;;;;;;;33.28;23.13;94604.91;4930372;29;20733;-84
2022/06/08 11:42:38;;;;;;;8.30;3.00;;;;;;;33.15;23.35;94599.31;4939654;29;20119;-84
2022/06/08 11:45:18;;;;;;;5.47;1.65;;;;;;;32.30;23.93;94468.91;4935201;29;20036;-84
2022/06/08 11:48:00;;;;;;;5.82;2.10;;;;;;;32.94;23.55;94603.41;4916380;29;20051;-83
2022/06/08 11:50:32;;;;;;;4.78;1.65;;;;;;;33.01;24.38;94598.91;4909472;29;20039;-84
2022/06/08 11:53:05;;;;;;;5.90;1.90;;;;;;;32.71;22.81;94506.72;4920865;29;20643;-84
2022/06/08 11:55:37;;;;;;;2.95;1.70;;;;;;;32.51;24.00;94554.22;4933014;29;20110;-83
2022/06/08 11:58:05;;;;;;;2.95;1.90;;;;;;;33.53;24.15;94587.72;4937454;29;20122;-83
2022/06/08 12:00:38;;;;;;;8.07;2.60;;;;;;;33.90;22.67;94586.31;4911170;29;20672;-84
2022/06/08 12:03:15;;;;;;;2.63;1.70;;;;;;;33.32;22.54;94586.34;4939442;29;20046;-84
2022/06/08 12:05:43;;;;;;;2.63;1.80;;;;;;;33.28;22.49;94580.16;4931844;29;20503;-84
2022/06/08 12:08:18;;;;;;;3.75;1.90;;;;;;;33.14;22.48;94487.13;4917502;29;20043;-83
2022/06/08 12:10:44;;;;;;;4.03;1.90;;;;;;;33.59;23.92;94584.00;4931341;29;20028;-85
2022/06/08 12:13:22;;;;;;;6.68;1.50;;;;;;;33.72;24.16;94584.84;4932344;29;20535;-83